Time;durP1;ratioP1;P1;durP2;ratioP2;P2;SDS_P1;SDS_P2;PMS_P1;PMS_P2;Temp;Humidity;BMP_temperature;BMP_pressure;BME280_temperature;BME280_humidity;BME280_pressure;Samples;Min_cycle;Max_cycle;Signal;HPM_P1;HPM_P2
2022/09/01 00:00:27;;;;;;;4.13;3.60;;;;;;;18.66;71.75;100691.69;5067063;28;20252;-69
2022/09/01 00:02:56;;;;;;;4.63;4.22;;;;;;;18.66;71.98;100691.69;5056972;28;20197;-72
2022/09/01 00:05:22;;;;;;;4.30;3.50;;;;;;;18.60;72.35;100687.53;5059811;28;20208;-71
2022/09/01 00:07:49;;;;;;;4.32;4.03;;;;;;;18.51;72.00;100691.81;5060048;28;20570;-72
2022/09/01 00:10:16;;;;;;;4.60;4.20;;;;;;;18.40;72.59;100689.00;5060921;28;20224;-72
2022/09/01 00:12:44;;;;;;;4.45;4.05;;;;;;;18.41;72.51;100685.31;5058361;28;20200;-72
2022/09/01 00:15:12;;;;;;;4.60;4.10;;;;;;;18.41;72.73;100690.78;5060212;28;20200;-70
2022/09/01 00:17:38;;;;;;;4.05;3.65;;;;;;;18.29;73.94;100699.84;5053879;28;20229;-72
2022/09/01 00:20:08;;;;;;;5.57;5.10;;;;;;;18.29;73.67;100698.00;5060561;28;20227;-72
2022/09/01 00:22:34;;;;;;;4.38;3.97;;;;;;;18.27;74.11;100694.50;5056577;28;20549;-70
2022/09/01 00:25:01;;;;;;;4.40;4.10;;;;;;;18.22;74.58;100695.81;5060054;28;20311;-72
2022/09/01 00:27:28;;;;;;;5.10;4.70;;;;;;;18.16;75.29;100704.44;5061450;28;20680;-71
2022/09/01 00:29:54;;;;;;;4.80;4.40;;;;;;;18.00;75.82;100702.84;5064366;28;20731;-71
2022/09/01 00:32:21;;;;;;;5.05;4.15;;;;;;;17.96;76.46;100692.25;5060242;28;20192;-73
2022/09/01 00:34:48;;;;;;;6.90;4.50;;;;;;;17.96;76.90;100697.72;5064528;28;20200;-71
2022/09/01 00:37:15;;;;;;;5.13;3.90;;;;;;;17.90;76.70;100690.84;5068086;28;20204;-74
2022/09/01 00:39:42;;;;;;;4.55;4.15;;;;;;;17.90;76.69;100690.84;5062746;28;20216;-72
2022/09/01 00:42:09;;;;;;;4.25;3.70;;;;;;;17.86;76.50;100697.47;5071958;28;20197;-72
2022/09/01 00:44:37;;;;;;;4.95;4.00;;;;;;;17.94;76.17;100689.63;5066528;28;20216;-75
2022/09/01 00:47:05;;;;;;;3.97;3.67;;;;;;;18.01;75.45;100688.22;5065804;28;20201;-71
2022/09/01 00:49:36;;;;;;;4.50;4.03;;;;;;;18.08;74.07;100686.78;5066535;28;20332;-73
2022/09/01 00:52:06;;;;;;;5.40;4.00;;;;;;;18.07;74.03;100686.91;5060962;28;20663;-73
2022/09/01 00:54:39;;;;;;;4.10;3.60;;;;;;;18.13;73.39;100687.34;5063523;28;20559;-72
2022/09/01 00:57:08;;;;;;;3.70;3.40;;;;;;;18.13;73.48;100690.06;5065024;28;20205;-71
2022/09/01 00:59:37;;;;;;;5.15;3.95;;;;;;;18.21;73.28;100684.03;5065780;28;20207;-71
2022/09/01 01:02:04;;;;;;;3.80;3.45;;;;;;;18.21;72.99;100694.09;5061022;28;20207;-71
2022/09/01 01:04:31;;;;;;;6.18;3.20;;;;;;;18.18;73.32;100683.38;5064933;28;20224;-71
2022/09/01 01:07:01;;;;;;;4.15;3.70;;;;;;;18.18;73.26;100686.13;5061557;28;20201;-72
2022/09/01 01:09:32;;;;;;;3.75;3.45;;;;;;;18.20;73.09;100678.69;5061749;28;20564;-71
2022/09/01 01:12:02;;;;;;;3.88;3.55;;;;;;;18.17;73.27;100676.22;5058092;28;20259;-72
2022/09/01 01:14:30;;;;;;;3.70;3.20;;;;;;;18.12;73.31;100674.69;5066039;28;20195;-72
2022/09/01 01:16:56;;;;;;;4.55;3.30;;;;;;;18.13;73.14;100673.72;5041429;28;20197;-72
2022/09/01 01:25:15;;;;;;;3.80;3.50;;;;;;;17.99;73.79;100670.22;5042465;28;20220;-72
2022/09/01 01:27:42;;;;;;;3.13;2.90;;;;;;;18.01;74.08;100674.59;5065002;28;20284;-72
2022/09/01 01:30:11;;;;;;;4.50;3.05;;;;;;;18.02;73.67;100678.19;5065977;28;20212;-71
2022/09/01 01:32:41;;;;;;;6.15;3.83;;;;;;;18.01;73.71;100668.28;5065127;28;20232;-71
2022/09/01 01:35:13;;;;;;;4.28;2.95;;;;;;;18.06;73.41;100671.53;5060583;28;20197;-72
2022/09/01 01:37:45;;;;;;;4.30;3.20;;;;;;;18.03;73.29;100667.16;5061599;28;20201;-72
2022/09/01 01:40:15;;;;;;;3.90;3.22;;;;;;;17.95;74.11;100671.44;5054247;28;20256;-72
2022/09/01 01:42:44;;;;;;;3.75;3.45;;;;;;;17.94;74.18;100658.81;5058435;28;20710;-71
2022/09/01 01:45:11;;;;;;;3.45;3.15;;;;;;;17.99;74.24;100665.66;5065690;28;20582;-73
2022/09/01 01:47:38;;;;;;;3.42;3.13;;;;;;;18.00;74.16;100655.59;5059598;28;20255;-72
2022/09/01 01:50:08;;;;;;;5.22;3.95;;;;;;;17.99;74.12;100657.47;5062132;28;20220;-72
2022/09/01 01:52:34;;;;;;;3.90;3.60;;;;;;;17.93;74.95;100660.63;5061612;28;20199;-71
2022/09/01 01:55:01;;;;;;;4.10;3.80;;;;;;;17.87;75.24;100661.97;5060931;28;20216;-72
2022/09/01 01:57:31;;;;;;;3.33;3.13;;;;;;;17.85;75.68;100665.78;5059393;28;20838;-71
2022/09/01 01:59:58;;;;;;;3.88;3.58;;;;;;;17.83;75.79;100663.16;5066136;28;20220;-70
2022/09/01 02:02:24;;;;;;;3.72;3.42;;;;;;;17.84;75.98;100664.03;5058955;28;20192;-73
2022/09/01 02:04:52;;;;;;;3.83;3.53;;;;;;;17.74;76.52;100660.19;5065526;28;20313;-73
2022/09/01 02:07:18;;;;;;;3.65;3.35;;;;;;;17.74;76.69;100658.34;5060378;28;20674;-71
2022/09/01 02:09:47;;;;;;;3.60;3.30;;;;;;;17.71;76.96;100666.75;5058748;28;20217;-71
2022/09/01 02:12:17;;;;;;;4.57;3.72;;;;;;;17.69;77.44;100663.25;5058366;28;20194;-72
2022/09/01 02:14:47;;;;;;;3.60;3.30;;;;;;;17.64;77.85;100662.72;5058046;28;20196;-72
2022/09/01 02:17:13;;;;;;;4.43;4.05;;;;;;;17.61;78.29;100663.78;5060009;28;20201;-71
2022/09/01 02:19:42;;;;;;;5.38;3.75;;;;;;;17.63;78.23;100653.66;5065465;28;20568;-72
2022/09/01 02:22:10;;;;;;;4.78;4.13;;;;;;;17.56;78.54;100660.50;5059074;28;20330;-72
2022/09/01 02:24:37;;;;;;;4.35;3.95;;;;;;;17.55;79.04;100655.16;5053217;28;20225;-73
2022/09/01 02:27:04;;;;;;;3.85;3.55;;;;;;;17.51;79.29;100655.38;5065995;28;20205;-73
2022/09/01 02:29:31;;;;;;;4.53;3.70;;;;;;;17.52;79.31;100650.81;5061491;28;20193;-71
2022/09/01 02:31:59;;;;;;;7.72;3.78;;;;;;;17.51;79.46;100649.94;5058193;28;20203;-72
2022/09/01 02:34:27;;;;;;;5.43;3.75;;;;;;;17.46;80.07;100652.13;5057788;28;20296;-71
2022/09/01 02:36:57;;;;;;;4.30;3.60;;;;;;;17.42;80.50;100647.00;5059104;28;20246;-70
2022/09/01 02:39:26;;;;;;;6.00;3.60;;;;;;;17.32;81.23;100652.22;5055913;28;20292;-71
2022/09/01 02:41:53;;;;;;;3.75;3.42;;;;;;;17.26;81.94;100656.22;5053601;28;20314;-70
2022/09/01 02:44:21;;;;;;;4.88;4.00;;;;;;;17.27;82.32;100648.94;5061498;28;20323;-72
2022/09/01 02:46:49;;;;;;;4.22;3.80;;;;;;;17.24;82.18;100647.28;5063210;28;20197;-72
2022/09/01 02:49:24;;;;;;;5.65;4.18;;;;;;;17.27;82.07;100641.63;5063663;28;20300;-72
2022/09/01 02:51:53;;;;;;;6.18;4.15;;;;;;;17.27;82.21;100652.53;5065250;28;20196;-73
2022/09/01 02:54:23;;;;;;;4.32;3.80;;;;;;;17.24;82.35;100649.16;5056596;28;20224;-71
2022/09/01 02:56:53;;;;;;;4.10;3.75;;;;;;;17.27;82.45;100648.94;5063126;28;20627;-72
2022/09/01 02:59:21;;;;;;;4.45;4.05;;;;;;;17.27;82.35;100649.78;5054915;28;20201;-72
2022/09/01 03:01:49;;;;;;;6.68;3.90;;;;;;;17.21;82.72;100647.53;5058084;28;20212;-74
2022/09/01 03:04:18;;;;;;;5.05;4.32;;;;;;;17.19;82.93;100648.63;5061698;28;20307;-72
2022/09/01 03:06:45;;;;;;;6.75;4.57;;;;;;;17.17;83.27;100640.53;5064667;28;20193;-72
2022/09/01 03:09:16;;;;;;;10.45;4.68;;;;;;;17.17;83.54;100640.53;5058025;28;20207;-72
2022/09/01 03:11:45;;;;;;;5.18;4.78;;;;;;;17.12;83.75;100637.28;5070677;28;20596;-72
2022/09/01 03:14:13;;;;;;;6.15;4.50;;;;;;;17.11;84.32;100643.69;5069359;28;20252;-73
2022/09/01 03:16:39;;;;;;;5.00;4.50;;;;;;;17.08;84.49;100646.63;5062211;28;20200;-72
2022/09/01 03:19:07;;;;;;;6.55;5.00;;;;;;;17.02;84.75;100641.59;5063274;28;20295;-71
2022/09/01 03:21:38;;;;;;;6.15;5.20;;;;;;;17.00;85.88;100646.25;5058281;28;20224;-72
2022/09/01 03:24:05;;;;;;;5.13;4.63;;;;;;;16.95;85.92;100635.69;5060546;28;20267;-71
2022/09/01 03:26:32;;;;;;;5.05;4.55;;;;;;;16.97;86.12;100638.31;5059020;28;20197;-73
2022/09/01 03:28:59;;;;;;;5.55;4.88;;;;;;;16.99;86.44;100644.53;5068503;28;20611;-72
2022/09/01 03:31:27;;;;;;;4.90;4.50;;;;;;;16.93;86.66;100642.22;5060472;28;20229;-72
2022/09/01 03:33:55;;;;;;;5.50;4.55;;;;;;;16.85;87.12;100643.63;5060786;28;20627;-74
2022/09/01 03:36:22;;;;;;;5.32;4.68;;;;;;;16.83;87.65;100648.28;5053129;28;20297;-72
2022/09/01 03:38:52;;;;;;;4.70;4.30;;;;;;;16.82;87.75;100642.94;5061042;28;20194;-73
2022/09/01 03:41:21;;;;;;;5.00;4.60;;;;;;;16.81;87.90;100639.34;5059891;28;20231;-75
2022/09/01 03:43:48;;;;;;;6.80;4.38;;;;;;;16.82;87.57;100642.94;5067741;28;20194;-76
2022/09/01 03:46:18;;;;;;;4.78;4.32;;;;;;;16.81;87.45;100644.78;5063697;28;20228;-75
2022/09/01 03:48:47;;;;;;;6.32;4.20;;;;;;;16.77;88.03;100634.19;5065861;28;20199;-73
2022/09/01 03:51:13;;;;;;;5.03;4.53;;;;;;;16.80;87.63;100640.34;5065496;28;20221;-73
2022/09/01 03:53:40;;;;;;;6.03;3.97;;;;;;;16.83;87.43;100633.81;5064022;28;20319;-74
2022/09/01 03:56:10;;;;;;;6.95;5.18;;;;;;;16.82;87.07;100640.22;5063927;28;20211;-74
2022/09/01 03:58:37;;;;;;;5.03;4.50;;;;;;;16.77;87.36;100635.06;5053576;28;20284;-74
2022/09/01 04:01:04;;;;;;;9.85;4.80;;;;;;;16.78;87.44;100633.22;5060936;28;20714;-71
2022/09/01 04:03:33;;;;;;;4.85;4.45;;;;;;;16.84;86.64;100633.69;5055067;28;20199;-71
2022/09/01 04:06:01;;;;;;;5.05;4.20;;;;;;;16.85;86.56;100638.19;5053775;28;20286;-73
2022/09/01 04:08:31;;;;;;;4.47;3.88;;;;;;;16.83;86.60;100642.84;5062307;28;20193;-73
2022/09/01 04:11:01;;;;;;;5.20;4.20;;;;;;;16.79;87.39;100635.88;5058855;28;20274;-72
2022/09/01 04:13:33;;;;;;;5.10;4.18;;;;;;;16.77;87.33;100639.63;5054192;28;20593;-74
2022/09/01 04:16:00;;;;;;;4.65;4.25;;;;;;;16.68;88.08;100633.81;5058382;28;20208;-74
2022/09/01 04:18:26;;;;;;;5.38;4.18;;;;;;;16.74;87.90;100645.28;5059644;28;20200;-72
2022/09/01 04:20:55;;;;;;;6.73;5.50;;;;;;;16.67;88.42;100642.97;5053319;28;20313;-72
2022/09/01 04:23:26;;;;;;;6.47;4.40;;;;;;;16.70;88.40;100644.63;5051899;28;20545;-73
2022/09/01 04:25:56;;;;;;;4.70;4.20;;;;;;;16.67;88.79;100640.25;5060278;28;20662;-72
2022/09/01 04:28:25;;;;;;;8.02;4.65;;;;;;;16.60;90.62;100651.66;5060371;28;20197;-75
2022/09/01 04:30:57;;;;;;;8.63;7.75;;;;;;;16.61;90.25;100650.66;5059658;28;20698;-74
2022/09/01 04:33:26;;;;;;;7.90;7.03;;;;;;;16.60;91.19;100646.22;5052787;28;20673;-74
2022/09/01 04:35:55;;;;;;;6.25;5.63;;;;;;;16.61;90.63;100654.25;5056209;28;20250;-74
2022/09/01 04:38:24;;;;;;;5.60;4.25;;;;;;;16.58;90.49;100654.47;5054008;28;20604;-71
2022/09/01 04:40:56;;;;;;;8.27;4.50;;;;;;;16.57;90.44;100662.72;5058219;28;20224;-75
2022/09/01 04:43:22;;;;;;;6.78;4.65;;;;;;;16.51;91.25;100647.69;5081392;22;20228;-75
2022/09/01 04:45:50;;;;;;;5.80;4.78;;;;;;;16.51;90.86;100653.13;5074983;28;20212;-75
2022/09/01 04:48:21;;;;;;;5.18;4.65;;;;;;;16.41;92.36;100652.00;5075252;28;20239;-76
2022/09/01 04:50:50;;;;;;;7.55;4.70;;;;;;;16.34;92.86;100648.78;5074525;28;20192;-76
2022/09/01 04:53:18;;;;;;;4.80;4.40;;;;;;;16.41;92.21;100652.84;5060319;28;20225;-76
2022/09/01 04:55:46;;;;;;;5.38;4.72;;;;;;;16.46;91.94;100661.59;5057271;28;20655;-77
2022/09/01 04:58:16;;;;;;;15.77;5.53;;;;;;;16.48;91.57;100653.31;5075324;28;20207;-75
2022/09/01 05:00:43;;;;;;;8.68;4.32;;;;;;;16.58;90.31;100661.75;5077873;28;20200;-76
2022/09/01 05:03:11;;;;;;;6.20;4.32;;;;;;;16.67;88.97;100653.00;5058520;28;20217;-76
2022/09/01 05:05:41;;;;;;;8.48;4.63;;;;;;;16.80;87.60;100648.50;5057680;28;20217;-75
2022/09/01 05:08:12;;;;;;;4.45;4.05;;;;;;;16.92;86.32;100654.09;5056540;28;20200;-75
2022/09/01 05:10:41;;;;;;;5.07;4.55;;;;;;;17.04;85.12;100661.41;5068651;28;20715;-70
2022/09/01 05:13:08;;;;;;;4.70;3.83;;;;;;;17.19;83.58;100663.09;5076106;28;20774;-69
2022/09/01 05:15:36;;;;;;;11.25;4.68;;;;;;;17.33;82.53;100658.53;5077580;28;20198;-70
2022/09/01 05:18:08;;;;;;;5.20;4.00;;;;;;;17.51;80.78;100654.53;5078318;28;20239;-71
2022/09/01 05:20:41;;;;;;;5.25;3.60;;;;;;;17.64;79.81;100662.72;5078075;28;20305;-71
2022/09/01 05:23:11;;;;;;;4.07;3.75;;;;;;;17.76;78.95;100669.13;5078197;28;20293;-70
2022/09/01 05:25:40;;;;;;;6.85;3.85;;;;;;;17.78;78.27;100661.72;5078907;28;20601;-71
2022/09/01 05:28:08;;;;;;;8.30;6.50;;;;;;;17.87;77.81;100661.09;5074934;28;20287;-71
2022/09/01 05:30:37;;;;;;;12.43;6.30;;;;;;;18.00;76.98;100669.25;5077769;28;20231;-71
2022/09/01 05:33:09;;;;;;;5.22;4.00;;;;;;;18.12;75.87;100669.22;5078261;28;20224;-69
2022/09/01 05:35:36;;;;;;;4.78;3.40;;;;;;;18.25;74.82;100663.75;5077023;28;20185;-71
2022/09/01 05:38:07;;;;;;;3.55;3.25;;;;;;;18.24;74.63;100667.44;5076621;28;20200;-69
2022/09/01 05:40:39;;;;;;;6.63;3.65;;;;;;;18.23;74.39;100668.44;5074881;28;20197;-72
2022/09/01 05:43:06;;;;;;;5.22;3.65;;;;;;;18.28;74.17;100665.38;5064712;28;20229;-70
2022/09/01 05:45:35;;;;;;;8.57;3.47;;;;;;;18.37;73.90;100666.56;5076785;28;20216;-69
2022/09/01 05:48:04;;;;;;;9.93;3.95;;;;;;;18.49;73.48;100679.28;5072003;28;20233;-74
2022/09/01 05:50:31;;;;;;;8.05;4.10;;;;;;;18.52;72.63;100669.03;5076393;28;20196;-71
2022/09/01 05:52:57;;;;;;;4.40;3.55;;;;;;;18.53;72.73;100668.03;5076168;28;20216;-73
2022/09/01 05:55:26;;;;;;;4.30;3.75;;;;;;;18.66;71.47;100672.59;5078418;28;20189;-73
2022/09/01 05:57:53;;;;;;;5.43;3.45;;;;;;;18.75;71.15;100672.75;5088472;28;20193;-73
2022/09/01 06:00:21;;;;;;;3.65;3.15;;;;;;;18.71;70.65;100673.09;5087397;28;20208;-70
2022/09/01 06:02:48;;;;;;;3.60;3.30;;;;;;;18.68;70.65;100676.06;5080070;28;20227;-73
2022/09/01 06:05:15;;;;;;;4.57;3.20;;;;;;;18.67;70.46;100671.59;5079239;28;20224;-70
2022/09/01 06:07:41;;;;;;;3.72;3.33;;;;;;;18.61;70.58;100677.50;5074015;28;20193;-71
2022/09/01 06:10:09;;;;;;;5.47;2.83;;;;;;;18.66;69.93;100678.91;5075072;28;20193;-71
2022/09/01 06:12:38;;;;;;;3.85;3.28;;;;;;;18.66;70.40;100681.63;5079598;28;20236;-72
2022/09/01 06:15:14;;;;;;;3.10;2.60;;;;;;;18.73;70.31;100679.31;5080134;28;20224;-71
2022/09/01 06:17:42;;;;;;;6.03;3.40;;;;;;;18.85;69.65;100686.59;5078734;28;20198;-71
2022/09/01 06:20:09;;;;;;;3.65;2.97;;;;;;;18.96;68.73;100694.84;5082350;28;20196;-71
2022/09/01 06:22:36;;;;;;;4.50;3.03;;;;;;;19.00;67.84;100680.97;5078243;28;20227;-71
2022/09/01 06:25:05;;;;;;;4.13;2.80;;;;;;;19.06;68.06;100689.56;5077832;28;20485;-70
2022/09/01 06:27:32;;;;;;;4.70;3.03;;;;;;;19.19;67.17;100689.50;5076843;28;20483;-72
2022/09/01 06:30:01;;;;;;;5.67;3.70;;;;;;;19.27;66.71;100689.78;5077486;28;20453;-71
2022/09/01 06:32:28;;;;;;;5.88;3.28;;;;;;;19.47;65.71;100687.34;5079384;28;20469;-74
2022/09/01 06:34:56;;;;;;;3.35;3.00;;;;;;;19.46;65.66;100685.63;5075847;28;20248;-71
2022/09/01 06:37:23;;;;;;;5.00;3.00;;;;;;;19.45;65.62;100694.81;5075867;28;21193;-70
2022/09/01 06:39:50;;;;;;;3.70;2.80;;;;;;;19.52;65.11;100698.81;5078903;28;20485;-72
2022/09/01 06:42:18;;;;;;;3.40;2.47;;;;;;;19.65;64.76;100695.94;5088044;28;20459;-71
2022/09/01 06:44:45;;;;;;;3.03;2.80;;;;;;;19.74;64.36;100692.53;5076884;28;20500;-71
2022/09/01 06:47:14;;;;;;;3.70;2.73;;;;;;;19.91;63.64;100700.25;5075907;28;20482;-71
2022/09/01 06:49:40;;;;;;;7.70;3.50;;;;;;;20.06;63.09;100694.53;5076172;28;20465;-71
2022/09/01 06:52:07;;;;;;;3.33;2.50;;;;;;;20.22;62.35;100700.53;5076719;28;20462;-70
2022/09/01 06:54:34;;;;;;;2.90;2.67;;;;;;;20.43;61.49;100695.16;5076313;28;20445;-71
2022/09/01 06:57:02;;;;;;;5.03;3.47;;;;;;;20.56;60.44;100690.47;5075823;28;20445;-70
2022/09/01 06:59:30;;;;;;;6.07;3.00;;;;;;;20.57;60.24;100688.59;5075254;28;20478;-70
2022/09/01 07:01:58;;;;;;;5.63;3.13;;;;;;;20.80;59.85;100697.59;5073598;28;20478;-71
2022/09/01 07:04:28;;;;;;;4.10;2.57;;;;;;;21.11;58.53;100697.78;5073571;28;20541;-71
2022/09/01 07:06:55;;;;;;;6.73;3.00;;;;;;;21.44;57.04;100700.38;5074675;28;20486;-70
2022/09/01 07:09:23;;;;;;;4.47;2.97;;;;;;;21.53;56.06;100703.34;5074730;28;20462;-70
2022/09/01 07:11:49;;;;;;;5.10;2.53;;;;;;;21.31;56.77;100705.16;5075624;28;20458;-71
2022/09/01 07:14:16;;;;;;;3.80;3.10;;;;;;;21.24;56.81;100701.22;5074397;28;20438;-70
2022/09/01 07:16:45;;;;;;;2.80;2.50;;;;;;;21.24;57.15;100706.69;5069169;28;20948;-71
2022/09/01 07:19:13;;;;;;;5.23;3.03;;;;;;;21.18;57.39;100707.19;5079048;28;20439;-72
2022/09/01 07:21:43;;;;;;;4.43;2.70;;;;;;;21.44;56.64;100707.75;5070963;28;22581;-73
2022/09/01 07:24:10;;;;;;;3.37;2.70;;;;;;;21.75;55.78;100708.66;5085891;28;20442;-70
2022/09/01 07:26:38;;;;;;;3.67;2.90;;;;;;;21.78;55.00;100704.81;5086277;28;20485;-71
2022/09/01 07:29:06;;;;;;;2.57;2.37;;;;;;;21.82;54.98;100700.78;5098423;28;20418;-71
2022/09/01 07:31:39;;;;;;;5.47;3.83;;;;;;;22.04;54.68;100714.31;5100298;28;20517;-71
2022/09/01 07:34:11;;;;;;;4.20;3.10;;;;;;;22.76;52.65;100715.22;5104392;28;20449;-71
2022/09/01 07:36:38;;;;;;;4.17;2.87;;;;;;;23.03;51.23;100713.72;5112597;28;20449;-72
2022/09/01 07:39:06;;;;;;;6.13;2.30;;;;;;;23.17;50.70;100717.91;5097100;28;20479;-72
2022/09/01 07:41:33;;;;;;;3.70;2.57;;;;;;;23.35;50.22;100715.31;5094072;28;20522;-70
2022/09/01 07:44:02;;;;;;;3.57;2.50;;;;;;;23.29;49.90;100722.25;5081111;28;20479;-71
2022/09/01 07:46:30;;;;;;;20.47;2.73;;;;;;;23.71;48.78;100720.06;5065487;28;20495;-71
2022/09/01 07:48:57;;;;;;;6.77;2.70;;;;;;;23.88;48.58;100717.63;5075104;28;20439;-70
2022/09/01 07:51:25;;;;;;;3.27;2.97;;;;;;;24.07;47.33;100725.81;5075222;28;20453;-73
2022/09/01 07:53:52;;;;;;;3.20;2.90;;;;;;;23.91;47.65;100728.31;5073470;28;20435;-70
2022/09/01 07:56:22;;;;;;;4.30;2.80;;;;;;;24.00;47.75;100727.44;5074934;28;20451;-70
2022/09/01 07:58:50;;;;;;;3.73;2.40;;;;;;;24.24;47.19;100723.28;5073806;28;20443;-72
2022/09/01 08:01:18;;;;;;;3.10;2.80;;;;;;;24.46;46.47;100728.41;5073434;28;20473;-71
2022/09/01 08:03:46;;;;;;;3.80;2.53;;;;;;;24.35;46.56;100724.00;5073710;28;20494;-69
2022/09/01 08:06:18;;;;;;;3.90;2.50;;;;;;;24.11;46.93;100719.00;5078367;28;20481;-70
2022/09/01 08:08:45;;;;;;;6.10;2.40;;;;;;;24.16;47.60;100721.28;5094288;28;20434;-70
2022/09/01 08:11:17;;;;;;;3.10;2.80;;;;;;;24.08;47.54;100721.16;5086345;28;20469;-71
2022/09/01 08:13:46;;;;;;;3.50;2.57;;;;;;;24.32;47.19;100727.03;5068847;28;20455;-69
2022/09/01 08:16:14;;;;;;;3.30;2.50;;;;;;;25.40;44.49;100737.47;5074050;28;20793;-71
2022/09/01 08:18:40;;;;;;;3.50;2.40;;;;;;;26.89;41.76;100736.41;5075163;28;20930;-70
2022/09/01 08:21:09;;;;;;;4.63;2.53;;;;;;;27.00;40.92;100738.84;5072918;28;20458;-69
2022/09/01 08:23:36;;;;;;;4.77;2.13;;;;;;;26.82;41.42;100738.13;5073009;28;20458;-70
2022/09/01 08:26:05;;;;;;;3.73;2.53;;;;;;;26.81;41.26;100742.75;5074110;28;20816;-71
2022/09/01 08:28:32;;;;;;;6.47;2.50;;;;;;;26.40;41.78;100734.25;5073936;28;20442;-70
2022/09/01 08:31:03;;;;;;;3.80;2.23;;;;;;;26.54;41.81;100742.97;5075346;28;20504;-70
2022/09/01 08:33:33;;;;;;;5.17;2.53;;;;;;;26.37;41.92;100742.03;5074049;28;20520;-70
2022/09/01 08:36:01;;;;;;;2.23;2.03;;;;;;;26.60;41.29;100737.66;5070517;28;20502;-72
2022/09/01 08:38:28;;;;;;;3.47;2.33;;;;;;;26.61;41.40;100735.75;5066037;28;20531;-70
2022/09/01 08:40:57;;;;;;;3.70;2.40;;;;;;;26.77;41.33;100744.16;5073825;28;20439;-70
2022/09/01 08:43:38;;;;;;;3.33;2.20;;;;;;;27.48;39.94;100738.28;5087942;28;20484;-71
2022/09/01 08:46:12;;;;;;;4.47;2.30;;;;;;;27.96;38.92;100737.44;5071371;28;20932;-69
2022/09/01 08:48:41;;;;;;;3.13;2.00;;;;;;;28.21;38.27;100732.69;5059398;28;20423;-70
2022/09/01 08:51:16;;;;;;;3.37;2.67;;;;;;;29.04;36.93;100741.59;5077789;28;20434;-70
2022/09/01 08:53:46;;;;;;;4.37;2.73;;;;;;;29.60;36.01;100741.41;5057022;28;20462;-71
2022/09/01 08:56:15;;;;;;;4.90;3.30;;;;;;;29.31;35.98;100735.56;5057113;28;20506;-70
2022/09/01 08:58:42;;;;;;;4.80;4.40;;;;;;;30.37;35.18;100744.03;5079499;28;20478;-71
2022/09/01 09:01:18;;;;;;;3.00;2.50;;;;;;;32.19;32.49;100738.41;5076960;28;20447;-69
2022/09/01 09:03:54;;;;;;;4.43;1.63;;;;;;;33.66;30.37;100737.13;5079111;28;20489;-70
2022/09/01 09:06:25;;;;;;;4.30;2.00;;;;;;;32.54;31.26;100733.72;5077487;28;20474;-70
2022/09/01 09:08:56;;;;;;;5.07;2.13;;;;;;;31.89;32.50;100740.50;5074917;28;20457;-70
2022/09/01 09:11:51;;;;;;;3.93;2.30;;;;;;;31.24;33.03;100734.91;5074124;28;20534;-71
2022/09/01 09:14:33;;;;;;;6.50;2.17;;;;;;;32.01;31.89;100736.13;5077146;28;20499;-71
2022/09/01 09:17:03;;;;;;;6.33;1.97;;;;;;;33.20;30.65;100737.91;5094078;28;20444;-73
2022/09/01 09:19:32;;;;;;;2.60;2.03;;;;;;;33.48;30.21;100729.34;5087825;28;20458;-71
2022/09/01 09:22:00;;;;;;;4.53;2.00;;;;;;;32.93;30.91;100729.41;5076350;28;20455;-70
2022/09/01 09:24:45;;;;;;;2.30;1.83;;;;;;;32.90;30.85;100726.16;5077820;28;20529;-71
2022/09/01 09:27:17;;;;;;;1.93;1.60;;;;;;;33.30;30.51;100718.81;5077747;28;20890;-70
2022/09/01 09:29:43;;;;;;;2.30;2.10;;;;;;;34.48;29.22;100712.56;5074022;28;20458;-71
2022/09/01 09:32:11;;;;;;;2.50;2.30;;;;;;;33.91;29.45;100722.53;5076111;28;20480;-70
2022/09/01 09:34:39;;;;;;;3.03;2.20;;;;;;;33.44;30.33;100716.88;5051429;28;20490;-72
2022/09/01 09:37:27;;;;;;;2.83;2.00;;;;;;;33.63;30.02;100715.25;5059072;28;20845;-71
2022/09/01 09:40:10;;;;;;;5.63;1.97;;;;;;;33.85;29.47;100710.28;5067823;28;20973;-71
2022/09/01 09:42:38;;;;;;;2.57;1.93;;;;;;;33.71;29.79;100711.38;5078309;28;20462;-71
2022/09/01 09:45:13;;;;;;;4.80;1.90;;;;;;;35.55;27.93;100707.34;5075643;28;20462;-71
2022/09/01 09:47:43;;;;;;;2.43;2.23;;;;;;;36.02;27.31;100716.22;5075595;28;21093;-70
2022/09/01 09:50:16;;;;;;;2.77;2.30;;;;;;;36.04;27.10;100697.22;5075810;28;20419;-70
2022/09/01 09:52:45;;;;;;;2.33;1.80;;;;;;;36.66;26.67;100702.03;5071351;28;20524;-69
2022/09/01 09:55:24;;;;;;;2.90;2.00;;;;;;;37.16;25.87;100701.81;5076303;28;20439;-69
2022/09/01 09:57:54;;;;;;;3.40;2.20;;;;;;;35.66;27.00;100700.16;5074834;28;20454;-70
2022/09/01 10:00:23;;;;;;;2.73;2.10;;;;;;;36.03;26.95;100691.88;5075137;28;20454;-71
2022/09/01 10:02:55;;;;;;;4.50;1.90;;;;;;;37.17;26.09;100692.28;5075823;28;20454;-72
2022/09/01 10:05:42;;;;;;;2.80;1.67;;;;;;;36.45;26.63;100695.75;5076517;28;21003;-70
2022/09/01 10:08:11;;;;;;;3.67;1.77;;;;;;;37.38;25.71;100693.72;5072576;28;20478;-71
2022/09/01 10:10:41;;;;;;;2.83;1.77;;;;;;;37.20;25.39;100691.81;5068056;28;20445;-71
2022/09/01 10:13:10;;;;;;;3.60;2.00;;;;;;;37.65;25.28;100687.66;5075054;28;20827;-71
2022/09/01 10:15:38;;;;;;;2.10;1.77;;;;;;;37.85;24.96;100688.16;5070414;28;20451;-69
2022/09/01 10:18:13;;;;;;;5.10;2.17;;;;;;;36.98;25.59;100680.22;5078459;28;20849;-70
2022/09/01 10:20:46;;;;;;;4.80;1.80;;;;;;;38.44;24.47;100684.50;5065190;28;20540;-70
2022/09/01 10:23:13;;;;;;;2.73;1.97;;;;;;;37.87;24.48;100676.69;5078504;28;20485;-70
2022/09/01 10:25:41;;;;;;;2.00;1.70;;;;;;;37.88;24.23;100676.47;5075375;28;20948;-71
2022/09/01 10:28:12;;;;;;;2.40;1.90;;;;;;;37.29;24.71;100675.47;5073319;28;21216;-72
2022/09/01 10:30:43;;;;;;;3.73;1.73;;;;;;;37.80;24.29;100687.22;5075486;28;20423;-70
2022/09/01 10:33:11;;;;;;;2.50;2.30;;;;;;;37.68;24.41;100682.44;5075422;28;20512;-69
2022/09/01 10:35:43;;;;;;;2.40;1.53;;;;;;;36.06;25.67;100677.38;5074256;28;20956;-72
2022/09/01 10:38:14;;;;;;;2.00;1.90;;;;;;;37.03;25.00;100669.13;5075187;28;20537;-72
2022/09/01 10:40:44;;;;;;;1.70;1.50;;;;;;;37.79;24.43;100663.88;5069201;28;20462;-70
2022/09/01 10:43:34;;;;;;;4.07;1.40;;;;;;;37.36;24.69;100662.19;5099174;22;20482;-72
2022/09/01 10:46:09;;;;;;;2.50;1.50;;;;;;;38.28;23.99;100667.28;5085226;28;20508;-72
2022/09/01 10:48:37;;;;;;;2.50;1.80;;;;;;;38.95;22.84;100669.59;5071149;28;20481;-72
2022/09/01 10:51:39;;;;;;;1.53;1.43;;;;;;;39.67;22.54;100664.47;5077931;28;20932;-72
2022/09/01 10:54:06;;;;;;;2.70;1.90;;;;;;;37.19;24.50;100658.34;4991793;28;20458;-72
2022/09/01 10:56:40;;;;;;;3.00;1.83;;;;;;;35.04;26.85;100652.31;4990674;28;21033;-72
2022/09/01 10:59:09;;;;;;;2.30;2.00;;;;;;;36.24;25.80;100642.94;4999073;28;20472;-73
2022/09/01 11:02:17;;;;;;;1.93;1.83;;;;;;;37.46;24.59;100651.22;4997174;28;20434;-72
2022/09/01 11:05:17;;;;;;;4.10;1.77;;;;;;;36.98;24.95;100656.91;4995692;28;20471;-73
2022/09/01 11:07:45;;;;;;;2.73;1.57;;;;;;;37.80;24.08;100647.88;4990713;28;20481;-72
2022/09/01 11:10:41;;;;;;;3.37;1.70;;;;;;;40.37;22.00;100654.56;5004758;28;20454;-72
2022/09/01 11:13:24;;;;;;;2.97;1.43;;;;;;;39.80;22.38;100662.13;4931050;29;20461;-73
2022/09/01 11:15:51;;;;;;;1.67;1.50;;;;;;;41.17;21.15;100650.19;4918472;29;20460;-74
2022/09/01 11:18:25;;;;;;;1.67;1.40;;;;;;;42.63;19.77;100635.69;4924952;29;20816;-72
2022/09/01 11:20:54;;;;;;;2.60;1.60;;;;;;;43.13;19.65;100647.47;4931321;29;20560;-72
2022/09/01 11:23:24;;;;;;;1.47;1.37;;;;;;;42.42;19.75;100645.22;4933265;29;20461;-77
2022/09/01 11:25:52;;;;;;;1.27;1.10;;;;;;;40.39;21.09;100644.72;4931376;29;20464;-73
2022/09/01 11:28:39;;;;;;;1.40;1.30;;;;;;;37.62;23.16;100638.44;4932162;29;20484;-71
2022/09/01 11:31:20;;;;;;;3.20;1.50;;;;;;;38.32;22.92;100631.94;4987332;28;20471;-71
2022/09/01 11:33:56;;;;;;;3.33;1.23;;;;;;;39.96;21.43;100629.44;5031325;28;20462;-73
2022/09/01 11:36:33;;;;;;;2.90;1.30;;;;;;;39.34;21.58;100632.28;5030463;28;20527;-72
2022/09/01 11:39:07;;;;;;;2.60;1.60;;;;;;;36.63;23.87;100624.78;5024554;28;20452;-73
2022/09/01 11:41:46;;;;;;;3.07;1.30;;;;;;;36.46;24.42;100618.09;5009869;28;20449;-74